createdAt,value
2019-03-11T00:00:01.589Z,0.00
2019-03-11T00:01:01.610Z,0.00
2019-03-11T00:02:01.556Z,0.00
2019-03-11T00:03:01.542Z,0.00
2019-03-11T00:04:01.531Z,0.00
2019-03-11T00:05:01.538Z,0.00
2019-03-11T00:06:01.518Z,0.00
2019-03-11T00:07:01.546Z,0.00
2019-03-11T00:08:01.489Z,0.00
2019-03-11T00:09:01.479Z,0.00
2019-03-11T00:10:01.465Z,0.00
2019-03-11T00:11:01.469Z,0.00
2019-03-11T00:12:01.444Z,0.00
2019-03-11T00:13:01.451Z,0.00
2019-03-11T00:14:01.422Z,0.00
2019-03-11T00:15:01.410Z,0.00
2019-03-11T00:16:01.421Z,0.00
2019-03-11T00:17:01.392Z,0.00
2019-03-11T00:18:01.380Z,0.00
2019-03-11T00:19:01.387Z,0.00
2019-03-11T00:20:01.357Z,0.00
2019-03-11T00:21:01.346Z,0.00
2019-03-11T00:22:01.352Z,0.00
2019-03-11T00:23:01.322Z,0.00
2019-03-11T00:24:01.310Z,0.00
2019-03-11T00:25:01.348Z,0.00
2019-03-11T00:26:01.291Z,0.00
2019-03-11T00:27:01.278Z,0.00
2019-03-11T00:28:01.283Z,0.00
2019-03-11T00:29:01.260Z,0.00
2019-03-11T00:30:01.251Z,0.00
2019-03-11T00:31:01.277Z,0.00
2019-03-11T00:32:01.223Z,0.00
2019-03-11T00:33:01.236Z,0.00
2019-03-11T00:34:01.206Z,0.00
2019-03-11T00:35:01.192Z,0.00
2019-03-11T00:36:01.179Z,0.00
2019-03-11T00:37:01.190Z,0.00
2019-03-11T00:38:01.183Z,0.00
2019-03-11T00:39:01.174Z,0.00
2019-03-11T00:40:01.134Z,0.00
2019-03-11T00:41:01.123Z,0.00
2019-03-11T00:42:01.118Z,0.00
2019-03-11T00:43:01.106Z,0.00
2019-03-11T00:44:01.142Z,0.00
2019-03-11T00:45:01.082Z,0.00
2019-03-11T00:46:01.072Z,0.00
2019-03-11T00:47:01.060Z,0.00
2019-03-11T00:48:02.538Z,0.00
2019-03-11T00:49:01.036Z,0.00
2019-03-11T00:50:01.089Z,0.00
2019-03-11T00:51:01.024Z,0.00
2019-03-11T00:52:01.004Z,0.00
2019-03-11T00:53:00.994Z,0.00
2019-03-11T00:54:00.990Z,0.00
2019-03-11T00:55:00.975Z,0.00
2019-03-11T00:56:00.975Z,0.00
2019-03-11T00:57:01.002Z,0.00
2019-03-11T00:58:00.940Z,0.00
2019-03-11T00:59:00.924Z,0.00
2019-03-11T01:00:00.914Z,0.00
2019-03-11T01:01:00.924Z,0.00
2019-03-11T01:02:00.898Z,0.00
2019-03-11T01:03:00.917Z,0.00
2019-03-11T01:04:00.893Z,0.00
2019-03-11T01:05:00.862Z,0.00
2019-03-11T01:06:00.850Z,0.00
2019-03-11T01:07:00.867Z,0.00
2019-03-11T01:08:00.826Z,0.00
2019-03-11T01:09:00.862Z,0.00
2019-03-11T01:10:00.808Z,0.00
2019-03-11T01:11:00.793Z,0.00
2019-03-11T01:12:00.782Z,0.00
2019-03-11T01:13:00.783Z,0.00
2019-03-11T01:14:00.763Z,0.00
2019-03-11T01:15:00.783Z,0.00
2019-03-11T01:16:00.740Z,0.00
2019-03-11T01:17:00.730Z,0.00
2019-03-11T01:18:00.732Z,0.00
2019-03-11T01:19:00.711Z,0.00
2019-03-11T01:20:00.696Z,0.00
2019-03-11T01:21:00.714Z,0.00
2019-03-11T01:22:00.673Z,0.00
2019-03-11T01:23:00.688Z,0.00
2019-03-11T01:24:00.652Z,0.00
2019-03-11T01:25:00.641Z,0.00
2019-03-11T01:26:00.654Z,0.00
2019-03-11T01:27:00.618Z,0.00
2019-03-11T01:28:00.606Z,0.00
2019-03-11T01:29:00.613Z,0.00
2019-03-11T01:30:00.588Z,0.00
2019-03-11T01:31:00.578Z,0.00
2019-03-11T01:32:00.601Z,0.00
2019-03-11T01:33:00.554Z,0.00
2019-03-11T01:34:00.545Z,0.00
2019-03-11T01:35:00.542Z,0.00
2019-03-11T01:36:00.522Z,0.00
2019-03-11T01:37:00.507Z,0.00
2019-03-11T01:38:00.523Z,0.00
2019-03-11T01:39:00.521Z,0.00
2019-03-11T01:40:00.478Z,0.00
2019-03-11T01:41:00.465Z,0.00
2019-03-11T01:42:00.456Z,0.00
2019-03-11T01:43:00.447Z,0.00
2019-03-11T01:44:00.442Z,0.00
2019-03-11T01:45:00.475Z,0.00
2019-03-11T01:46:00.426Z,0.00
2019-03-11T01:47:00.406Z,0.00
2019-03-11T01:48:00.390Z,0.00
2019-03-11T01:49:00.380Z,0.00
2019-03-11T01:50:00.424Z,0.00
2019-03-11T01:51:00.383Z,0.00
2019-03-11T01:52:00.358Z,0.00
2019-03-11T01:53:00.333Z,0.00
2019-03-11T01:54:00.323Z,0.00
2019-03-11T01:55:00.328Z,0.00
2019-03-11T01:56:00.300Z,0.00
2019-03-11T01:57:00.338Z,0.00
2019-03-11T01:58:00.291Z,0.00
2019-03-11T01:59:00.268Z,0.00
2019-03-11T02:00:00.353Z,0.00
2019-03-11T02:01:00.249Z,0.00
2019-03-11T02:02:00.235Z,0.00
2019-03-11T02:03:00.266Z,0.00
2019-03-11T02:04:00.214Z,0.00
2019-03-11T02:05:00.370Z,0.00
2019-03-11T02:06:00.194Z,0.00
2019-03-11T02:07:00.179Z,0.00
2019-03-11T02:08:00.167Z,0.00
2019-03-11T02:09:00.236Z,0.00
2019-03-11T02:10:00.350Z,0.00
2019-03-11T02:11:00.140Z,0.00
2019-03-11T02:12:00.123Z,0.00
2019-03-11T02:13:00.115Z,0.00
2019-03-11T02:14:00.106Z,0.00
2019-03-11T02:15:00.163Z,0.00
2019-03-11T02:16:00.079Z,0.00
2019-03-11T02:17:00.070Z,0.00
2019-03-11T02:18:00.058Z,0.00
2019-03-11T02:19:00.049Z,0.00
2019-03-11T02:20:00.064Z,0.00
2019-03-11T02:21:00.069Z,0.00
2019-03-11T02:22:00.015Z,0.00
2019-03-11T02:23:00.002Z,0.00
2019-03-11T02:23:59.992Z,0.00
2019-03-11T02:24:59.980Z,0.00
2019-03-11T02:25:59.980Z,0.00
2019-03-11T02:27:00.000Z,0.00
2019-03-11T02:27:59.948Z,0.00
2019-03-11T02:28:59.939Z,0.00
2019-03-11T02:29:59.926Z,0.00
2019-03-11T02:30:59.930Z,0.00
2019-03-11T02:31:59.907Z,0.00
2019-03-11T02:32:59.920Z,0.00
2019-03-11T02:33:59.916Z,0.00
2019-03-11T02:34:59.874Z,0.00
2019-03-11T02:35:59.858Z,0.00
2019-03-11T02:36:59.849Z,0.00
2019-03-11T02:38:00.012Z,0.00
2019-03-11T02:38:59.854Z,0.00
2019-03-11T02:39:59.876Z,0.00
2019-03-11T02:40:59.803Z,0.00
2019-03-11T02:41:59.817Z,0.00
2019-03-11T02:42:59.782Z,0.00
2019-03-11T02:43:59.785Z,0.00
2019-03-11T02:44:59.762Z,0.00
2019-03-11T02:45:59.775Z,0.00
2019-03-11T02:46:59.748Z,0.00
2019-03-11T02:47:59.736Z,0.00
2019-03-11T02:48:59.730Z,0.00
2019-03-11T02:49:59.703Z,0.00
2019-03-11T02:50:59.693Z,0.00
2019-03-11T02:51:59.718Z,0.00
2019-03-11T02:52:59.676Z,0.00
2019-03-11T02:53:59.660Z,0.00
2019-03-11T02:54:59.667Z,0.00
2019-03-11T02:55:59.642Z,0.00
2019-03-11T02:56:59.667Z,0.00
2019-03-11T02:57:59.658Z,0.00
2019-03-11T02:58:59.605Z,0.00
2019-03-11T02:59:59.636Z,0.00
2019-03-11T03:00:59.585Z,0.00
2019-03-11T03:01:59.586Z,0.00
2019-03-11T03:02:59.581Z,0.00
2019-03-11T03:03:59.606Z,0.00
2019-03-11T03:04:59.547Z,0.00
2019-03-11T03:05:59.539Z,0.00
2019-03-11T03:06:59.525Z,0.00
2019-03-11T03:07:59.507Z,0.00
2019-03-11T03:08:59.523Z,0.00
2019-03-11T03:09:59.531Z,0.00
2019-03-11T03:10:59.497Z,0.00
2019-03-11T03:11:59.462Z,0.00
2019-03-11T03:12:59.453Z,0.00
2019-03-11T03:13:59.448Z,0.00
2019-03-11T03:14:59.431Z,0.00
2019-03-11T03:15:59.446Z,0.00
2019-03-11T03:16:59.431Z,0.00
2019-03-11T03:17:59.419Z,0.00
2019-03-11T03:18:59.386Z,0.00
2019-03-11T03:19:59.468Z,0.00
2019-03-11T03:20:59.382Z,0.00
2019-03-11T03:21:59.388Z,0.00
2019-03-11T03:22:59.375Z,0.00
2019-03-11T03:23:59.330Z,0.00
2019-03-11T03:24:59.321Z,0.00
2019-03-11T03:25:59.308Z,0.00
2019-03-11T03:26:59.298Z,0.00
2019-03-11T03:27:59.404Z,0.00
2019-03-11T03:28:59.290Z,0.00
2019-03-11T03:29:59.278Z,0.00
2019-03-11T03:30:59.415Z,0.00
2019-03-11T03:31:59.259Z,0.00
2019-03-11T03:32:59.247Z,0.00
2019-03-11T03:33:59.257Z,0.00
2019-03-11T03:34:59.261Z,0.00
2019-03-11T03:35:59.208Z,0.00
2019-03-11T03:36:59.198Z,0.00
2019-03-11T03:37:59.181Z,0.00
2019-03-11T03:38:59.166Z,0.00
2019-03-11T03:39:59.159Z,0.00
2019-03-11T03:40:59.176Z,0.00
2019-03-11T03:41:59.170Z,0.00
2019-03-11T03:42:59.390Z,0.00
2019-03-11T03:43:59.139Z,0.00
2019-03-11T03:44:59.099Z,0.00
2019-03-11T03:45:59.094Z,0.00
2019-03-11T03:46:59.117Z,0.00
2019-03-11T03:47:59.097Z,0.00
2019-03-11T03:48:59.058Z,0.00
2019-03-11T03:49:59.044Z,0.00
2019-03-11T03:50:59.047Z,0.00
2019-03-11T03:51:59.040Z,0.00
2019-03-11T03:52:59.067Z,0.00
2019-03-11T03:53:58.998Z,0.00
2019-03-11T03:54:59.002Z,0.00
2019-03-11T03:55:58.980Z,0.00
2019-03-11T03:56:58.973Z,0.00
2019-03-11T03:57:58.955Z,0.00
2019-03-11T03:58:59.002Z,0.00
2019-03-11T03:59:58.940Z,0.00
2019-03-11T04:00:58.942Z,0.00
2019-03-11T04:01:58.915Z,0.00
2019-03-11T04:02:58.899Z,0.00
2019-03-11T04:03:58.891Z,0.00
2019-03-11T04:04:58.905Z,0.00
2019-03-11T04:05:58.883Z,0.00
2019-03-11T04:06:58.855Z,0.00
2019-03-11T04:07:58.847Z,0.00
2019-03-11T04:08:58.847Z,0.00
2019-03-11T04:09:58.827Z,0.00
2019-03-11T04:10:58.889Z,0.00
2019-03-11T04:11:58.822Z,0.00
2019-03-11T04:12:58.790Z,0.00
2019-03-11T04:13:58.777Z,0.00
2019-03-11T04:14:58.774Z,0.00
2019-03-11T04:15:58.760Z,0.00
2019-03-11T04:16:58.763Z,0.00
2019-03-11T04:17:58.750Z,0.00
2019-03-11T04:18:58.829Z,0.00
2019-03-11T04:19:58.716Z,0.00
2019-03-11T04:20:58.703Z,0.00
2019-03-11T04:21:58.696Z,0.00
2019-03-11T04:22:58.701Z,0.00
2019-03-11T04:23:58.703Z,0.00
2019-03-11T04:24:58.660Z,0.00
2019-03-11T04:25:58.652Z,0.00
2019-03-11T04:26:58.637Z,0.00
2019-03-11T04:27:58.626Z,0.00
2019-03-11T04:28:58.643Z,0.00
2019-03-11T04:29:58.620Z,0.00
2019-03-11T04:30:58.598Z,0.00
2019-03-11T04:31:58.615Z,0.00
2019-03-11T04:32:58.568Z,0.00
2019-03-11T04:33:58.558Z,0.00
2019-03-11T04:34:58.582Z,0.00
2019-03-11T04:35:58.549Z,0.00
2019-03-11T04:36:58.535Z,0.00
2019-03-11T04:37:58.515Z,0.00
2019-03-11T04:38:58.500Z,0.00
2019-03-11T04:39:58.498Z,0.00
2019-03-11T04:40:58.551Z,0.00
2019-03-11T04:41:58.474Z,0.00
2019-03-11T04:42:58.458Z,0.00
2019-03-11T04:43:58.447Z,0.00
2019-03-11T04:44:58.440Z,0.00
2019-03-11T04:45:58.427Z,0.00
2019-03-11T04:46:58.473Z,0.00
2019-03-11T04:47:58.405Z,0.00
2019-03-11T04:48:58.390Z,0.00
2019-03-11T04:50:00.205Z,0.00
2019-03-11T04:50:58.370Z,0.00
2019-03-11T04:51:58.359Z,0.00
2019-03-11T04:52:58.404Z,0.00
2019-03-11T04:53:58.335Z,0.00
2019-03-11T04:54:58.325Z,0.00
2019-03-11T04:55:58.315Z,0.00
2019-03-11T04:56:58.305Z,0.00
2019-03-11T04:57:58.310Z,0.00
2019-03-11T04:58:58.345Z,0.00
2019-03-11T04:59:58.269Z,0.00
2019-03-11T05:00:58.258Z,0.00
2019-03-11T05:01:58.258Z,0.00
2019-03-11T05:02:58.233Z,0.00
2019-03-11T05:03:58.230Z,0.00
2019-03-11T05:04:58.278Z,0.00
2019-03-11T05:05:58.207Z,0.00
2019-03-11T05:06:58.193Z,0.00
2019-03-11T05:07:58.178Z,0.00
2019-03-11T05:08:58.188Z,0.00
2019-03-11T05:09:58.158Z,0.00
2019-03-11T05:10:58.169Z,0.00
2019-03-11T05:11:58.157Z,0.00
2019-03-11T05:12:58.127Z,0.00
2019-03-11T05:13:58.114Z,0.00
2019-03-11T05:14:58.118Z,0.00
2019-03-11T05:15:58.092Z,0.00
2019-03-11T05:16:58.128Z,0.00
2019-03-11T05:17:58.086Z,0.00
2019-03-11T05:18:58.061Z,0.00
2019-03-11T05:19:58.062Z,0.00
2019-03-11T05:20:58.042Z,0.00
2019-03-11T05:21:58.031Z,0.00
2019-03-11T05:22:58.046Z,0.00
2019-03-11T05:23:58.020Z,0.00
2019-03-11T05:24:57.991Z,0.00
2019-03-11T05:25:57.995Z,0.00
2019-03-11T05:26:57.990Z,0.00
2019-03-11T05:27:57.963Z,0.00
2019-03-11T05:28:58.016Z,0.00
2019-03-11T05:29:57.942Z,0.00
2019-03-11T05:30:57.925Z,0.00
2019-03-11T05:31:57.938Z,0.00
2019-03-11T05:32:57.920Z,0.00
2019-03-11T05:33:57.897Z,0.00
2019-03-11T05:34:57.915Z,0.00
2019-03-11T05:35:57.871Z,0.00
2019-03-11T05:36:57.865Z,4.00
2019-03-11T05:37:57.868Z,0.00
2019-03-11T05:38:57.844Z,0.00
2019-03-11T05:39:57.836Z,4.00
2019-03-11T05:40:57.871Z,0.00
2019-03-11T05:41:57.812Z,0.00
2019-03-11T05:42:57.800Z,4.00
2019-03-11T05:43:57.801Z,8.00
2019-03-11T05:44:57.793Z,8.00
2019-03-11T05:45:57.765Z,8.00
2019-03-11T05:46:57.800Z,8.00
2019-03-11T05:47:57.745Z,8.00
2019-03-11T05:48:57.744Z,4.00
2019-03-11T05:49:57.723Z,4.00
2019-03-11T05:50:57.721Z,8.00
2019-03-11T05:51:57.697Z,16.00
2019-03-11T05:52:57.705Z,16.00
2019-03-11T05:53:57.676Z,20.00
2019-03-11T05:54:57.666Z,24.00
2019-03-11T05:55:57.763Z,28.00
2019-03-11T05:56:59.076Z,32.00
2019-03-11T05:57:57.634Z,32.00
2019-03-11T05:58:57.654Z,36.00
2019-03-11T05:59:57.614Z,44.00
2019-03-11T06:00:57.601Z,56.00
2019-03-11T06:01:57.605Z,52.00
2019-03-11T06:02:57.581Z,52.00
2019-03-11T06:03:57.565Z,56.00
2019-03-11T06:04:57.579Z,64.00
2019-03-11T06:05:57.544Z,56.00
2019-03-11T06:06:57.534Z,44.00
2019-03-11T06:07:57.539Z,36.00
2019-03-11T06:08:57.511Z,40.00
2019-03-11T06:09:57.500Z,48.00
2019-03-11T06:10:57.540Z,44.00
2019-03-11T06:11:57.479Z,44.00
2019-03-11T06:12:57.467Z,64.00
2019-03-11T06:13:57.486Z,76.00
2019-03-11T06:14:57.448Z,68.00
2019-03-11T06:15:57.435Z,60.00
2019-03-11T06:16:57.456Z,72.00
2019-03-11T06:17:57.414Z,80.00
2019-03-11T06:18:57.418Z,68.00
2019-03-11T06:19:57.406Z,60.00
2019-03-11T06:20:57.381Z,48.00
2019-03-11T06:21:57.391Z,48.00
2019-03-11T06:22:57.397Z,40.00
2019-03-11T06:23:57.349Z,32.00
2019-03-11T06:24:57.335Z,24.00
2019-03-11T06:25:57.339Z,20.00
2019-03-11T06:26:57.312Z,24.00
2019-03-11T06:27:57.309Z,20.00
2019-03-11T06:28:57.319Z,20.00
2019-03-11T06:29:57.285Z,20.00
2019-03-11T06:30:57.280Z,20.00
2019-03-11T06:31:57.262Z,16.00
2019-03-11T06:32:57.249Z,12.00
2019-03-11T06:33:57.233Z,12.00
2019-03-11T06:34:57.274Z,24.00
2019-03-11T06:35:57.232Z,32.00
2019-03-11T06:36:57.202Z,28.00
2019-03-11T06:37:57.192Z,28.00
2019-03-11T06:39:05.370Z,32.00
2019-03-11T06:39:58.168Z,32.00
2019-03-11T06:40:57.208Z,28.00
2019-03-11T06:41:57.163Z,28.00
2019-03-11T06:42:57.135Z,44.00
2019-03-11T06:43:57.124Z,60.00
2019-03-11T06:44:57.117Z,56.00
2019-03-11T06:45:57.103Z,40.00
2019-03-11T06:46:57.136Z,48.00
2019-03-11T06:47:57.095Z,60.00
2019-03-11T06:48:57.070Z,48.00
2019-03-11T06:49:57.059Z,36.00
2019-03-11T06:50:57.049Z,48.00
2019-03-11T06:51:57.038Z,64.00
2019-03-11T06:52:57.095Z,56.00
2019-03-11T06:53:57.017Z,48.00
2019-03-11T06:54:57.005Z,44.00
2019-03-11T06:55:56.996Z,40.00
2019-03-11T06:56:56.983Z,24.00
2019-03-11T06:57:56.983Z,12.00
2019-03-11T06:58:57.009Z,24.00
2019-03-11T06:59:56.950Z,32.00
2019-03-11T07:00:56.950Z,32.00
2019-03-11T07:01:56.934Z,28.00
2019-03-11T07:02:56.920Z,44.00
2019-03-11T07:03:56.918Z,68.00
2019-03-11T07:04:56.898Z,72.00
2019-03-11T07:05:56.911Z,80.00
2019-03-11T07:06:56.892Z,96.00
2019-03-11T07:07:56.861Z,144.00
2019-03-11T07:08:56.848Z,144.00
2019-03-11T07:09:56.842Z,120.00
2019-03-11T07:10:56.841Z,148.00
2019-03-11T07:11:56.855Z,156.00
2019-03-11T07:12:56.820Z,140.00
2019-03-11T07:13:56.795Z,108.00
2019-03-11T07:14:56.785Z,104.00
2019-03-11T07:15:56.792Z,100.00
2019-03-11T07:16:56.776Z,80.00
2019-03-11T07:17:56.794Z,68.00
2019-03-11T07:18:56.748Z,72.00
2019-03-11T07:19:56.730Z,84.00
2019-03-11T07:20:56.724Z,88.00
2019-03-11T07:21:56.733Z,100.00
2019-03-11T07:22:56.698Z,124.00
2019-03-11T07:23:56.708Z,136.00
2019-03-11T07:24:56.679Z,120.00
2019-03-11T07:25:56.663Z,132.00
2019-03-11T07:26:56.653Z,160.00
2019-03-11T07:27:56.663Z,192.00
2019-03-11T07:28:56.628Z,196.00
2019-03-11T07:29:56.665Z,168.00
2019-03-11T07:30:56.616Z,184.00
2019-03-11T07:31:56.602Z,268.00
2019-03-11T07:32:56.595Z,368.00
2019-03-11T07:33:56.592Z,420.00
2019-03-11T07:35:07.712Z,456.00
2019-03-11T07:35:57.573Z,556.00
2019-03-11T07:36:56.549Z,592.00
2019-03-11T07:37:56.532Z,512.00
2019-03-11T07:38:56.539Z,416.00
2019-03-11T07:39:56.508Z,352.00
2019-03-11T07:40:56.501Z,332.00
2019-03-11T07:41:56.515Z,264.00
2019-03-11T07:42:56.481Z,236.00
2019-03-11T07:43:56.466Z,212.00
2019-03-11T07:44:56.474Z,168.00
2019-03-11T07:45:56.444Z,124.00
2019-03-11T07:46:56.436Z,104.00
2019-03-11T07:47:56.451Z,136.00
2019-03-11T07:48:56.411Z,180.00
2019-03-11T07:49:56.400Z,196.00
2019-03-11T07:50:56.403Z,216.00
2019-03-11T07:51:56.378Z,284.00
2019-03-11T07:52:56.383Z,348.00
2019-03-11T07:53:56.357Z,364.00
2019-03-11T07:54:56.390Z,452.00
2019-03-11T07:55:56.335Z,616.00
2019-03-11T07:56:56.339Z,1100.00
2019-03-11T07:57:56.322Z,1228.00
2019-03-11T07:58:56.302Z,768.00
2019-03-11T07:59:56.291Z,668.00
2019-03-11T08:00:56.350Z,820.00
2019-03-11T08:01:56.270Z,1040.00
2019-03-11T08:02:56.277Z,672.00
2019-03-11T08:03:56.262Z,696.00
2019-03-11T08:04:56.236Z,832.00
2019-03-11T08:05:56.223Z,644.00
2019-03-11T08:06:56.213Z,752.00
2019-03-11T08:07:56.301Z,996.00
2019-03-11T08:08:56.193Z,996.00
2019-03-11T08:09:56.189Z,1004.00
2019-03-11T08:10:56.171Z,740.00
2019-03-11T08:11:56.159Z,752.00
2019-03-11T08:12:56.147Z,456.00
2019-03-11T08:13:56.190Z,424.00
2019-03-11T08:14:56.127Z,464.00
2019-03-11T08:15:56.115Z,396.00
2019-03-11T08:16:56.106Z,292.00
2019-03-11T08:17:56.093Z,236.00
2019-03-11T08:18:56.095Z,192.00
2019-03-11T08:19:56.113Z,196.00
2019-03-11T08:20:56.056Z,176.00
2019-03-11T08:21:56.048Z,184.00
2019-03-11T08:22:56.040Z,188.00
2019-03-11T08:23:56.024Z,120.00
2019-03-11T08:24:56.035Z,88.00
2019-03-11T08:25:56.059Z,92.00
2019-03-11T08:26:55.993Z,104.00
2019-03-11T08:27:55.984Z,96.00
2019-03-11T08:28:55.976Z,88.00
2019-03-11T08:29:55.960Z,92.00
2019-03-11T08:30:55.962Z,100.00
2019-03-11T08:31:55.969Z,116.00
2019-03-11T08:32:55.951Z,132.00
2019-03-11T08:33:55.914Z,168.00
2019-03-11T08:34:55.903Z,216.00
2019-03-11T08:35:55.896Z,212.00
2019-03-11T08:36:55.882Z,192.00
2019-03-11T08:37:55.876Z,220.00
2019-03-11T08:38:55.923Z,240.00
2019-03-11T08:39:55.851Z,192.00
2019-03-11T08:40:55.840Z,160.00
2019-03-11T08:41:55.829Z,184.00
2019-03-11T08:42:55.818Z,200.00
2019-03-11T08:43:55.809Z,216.00
2019-03-11T08:44:55.852Z,236.00
2019-03-11T08:45:55.785Z,300.00
2019-03-11T08:46:55.775Z,340.00
2019-03-11T08:47:55.762Z,260.00
2019-03-11T08:48:55.752Z,144.00
2019-03-11T08:49:55.779Z,100.00
2019-03-11T08:50:55.730Z,76.00
2019-03-11T08:51:55.762Z,52.00
2019-03-11T08:52:55.711Z,44.00
2019-03-11T08:53:55.705Z,52.00
2019-03-11T08:54:55.686Z,52.00
2019-03-11T08:55:55.684Z,48.00
2019-03-11T08:56:55.665Z,48.00
2019-03-11T08:57:55.669Z,64.00
2019-03-11T08:58:55.641Z,72.00
2019-03-11T08:59:55.641Z,64.00
2019-03-11T09:00:55.622Z,68.00
2019-03-11T09:01:55.630Z,80.00
2019-03-11T09:02:55.596Z,64.00
2019-03-11T09:03:55.587Z,60.00
2019-03-11T09:04:55.612Z,96.00
2019-03-11T09:05:55.572Z,128.00
2019-03-11T09:06:55.556Z,124.00
2019-03-11T09:07:55.554Z,136.00
2019-03-11T09:08:55.533Z,188.00
2019-03-11T09:09:55.522Z,276.00
2019-03-11T09:10:55.512Z,352.00
2019-03-11T09:11:55.519Z,400.00
2019-03-11T09:12:55.507Z,388.00
2019-03-11T09:13:55.477Z,352.00
2019-03-11T09:14:55.466Z,316.00
2019-03-11T09:15:55.455Z,348.00
2019-03-11T09:16:55.464Z,364.00
2019-03-11T09:17:55.462Z,308.00
2019-03-11T09:18:55.446Z,308.00
2019-03-11T09:19:55.412Z,272.00
2019-03-11T09:20:55.396Z,220.00
2019-03-11T09:21:55.393Z,208.00
2019-03-11T09:22:55.396Z,196.00
2019-03-11T09:23:55.411Z,208.00
2019-03-11T09:24:55.353Z,216.00
2019-03-11T09:25:55.345Z,236.00
2019-03-11T09:26:55.329Z,300.00
2019-03-11T09:27:55.323Z,332.00
2019-03-11T09:28:55.329Z,388.00
2019-03-11T09:29:55.346Z,476.00
2019-03-11T09:30:55.293Z,620.00
2019-03-11T09:31:55.278Z,728.00
2019-03-11T09:32:55.269Z,860.00
2019-03-11T09:33:55.278Z,1252.00
2019-03-11T09:34:55.247Z,920.00
2019-03-11T09:35:55.281Z,568.00
2019-03-11T09:36:55.223Z,500.00
2019-03-11T09:37:55.214Z,580.00
2019-03-11T09:38:55.199Z,616.00
2019-03-11T09:39:55.206Z,624.00
2019-03-11T09:40:55.180Z,504.00
2019-03-11T09:41:55.194Z,264.00
2019-03-11T09:42:55.159Z,212.00
2019-03-11T09:43:55.146Z,264.00
2019-03-11T09:44:55.140Z,340.00
2019-03-11T09:45:55.144Z,340.00
2019-03-11T09:46:55.130Z,440.00
2019-03-11T09:47:55.101Z,724.00
2019-03-11T09:48:55.111Z,964.00
2019-03-11T09:49:55.080Z,888.00
2019-03-11T09:50:55.076Z,1040.00
2019-03-11T09:51:55.056Z,900.00
2019-03-11T09:52:55.060Z,676.00
2019-03-11T09:53:55.034Z,784.00
2019-03-11T09:54:55.064Z,1108.00
2019-03-11T09:55:55.014Z,1360.00
2019-03-11T09:56:55.015Z,1644.00
2019-03-11T09:57:54.993Z,2080.00
2019-03-11T09:58:54.992Z,1964.00
2019-03-11T09:59:54.991Z,1668.00
2019-03-11T10:00:54.983Z,1448.00
2019-03-11T10:01:54.951Z,1592.00
2019-03-11T10:02:54.938Z,1504.00
2019-03-11T10:03:54.938Z,2016.00
2019-03-11T10:04:54.929Z,1576.00
2019-03-11T10:05:54.906Z,1616.00
2019-03-11T10:06:54.932Z,1636.00
2019-03-11T10:07:54.922Z,1652.00
2019-03-11T10:08:54.868Z,1680.00
2019-03-11T10:09:54.859Z,1608.00
2019-03-11T10:10:54.864Z,1532.00
2019-03-11T10:11:54.836Z,1508.00
2019-03-11T10:12:54.863Z,1360.00
2019-03-11T10:13:54.817Z,1352.00
2019-03-11T10:14:54.804Z,1360.00
2019-03-11T10:15:54.824Z,1224.00
2019-03-11T10:16:54.783Z,1220.00
2019-03-11T10:17:54.776Z,1140.00
2019-03-11T10:18:54.814Z,1068.00
2019-03-11T10:19:54.749Z,1140.00
2019-03-11T10:20:54.745Z,1072.00
2019-03-11T10:21:54.746Z,992.00
2019-03-11T10:22:54.722Z,992.00
2019-03-11T10:23:54.707Z,780.00
2019-03-11T10:24:54.749Z,824.00
2019-03-11T10:25:54.684Z,752.00
2019-03-11T10:26:54.687Z,788.00
2019-03-11T10:27:54.676Z,940.00
2019-03-11T10:28:54.648Z,920.00
2019-03-11T10:29:54.638Z,928.00
2019-03-11T10:30:54.668Z,880.00
2019-03-11T10:31:54.618Z,892.00
2019-03-11T10:32:54.635Z,956.00
2019-03-11T10:33:54.599Z,948.00
2019-03-11T10:34:54.588Z,852.00
2019-03-11T10:35:54.650Z,948.00
2019-03-11T10:36:54.567Z,844.00
2019-03-11T10:37:54.605Z,868.00
2019-03-11T10:38:54.570Z,872.00
2019-03-11T10:39:54.535Z,700.00
2019-03-11T10:40:54.521Z,692.00
2019-03-11T10:41:54.509Z,540.00
2019-03-11T10:42:54.499Z,648.00
2019-03-11T10:43:54.525Z,792.00
2019-03-11T10:44:54.490Z,788.00
2019-03-11T10:45:54.467Z,816.00
2019-03-11T10:46:54.469Z,888.00
2019-03-11T10:47:54.442Z,792.00
2019-03-11T10:48:54.432Z,848.00
2019-03-11T10:49:54.421Z,764.00
2019-03-11T10:50:54.510Z,704.00
2019-03-11T10:51:54.399Z,744.00
2019-03-11T10:52:54.393Z,716.00
2019-03-11T10:53:54.446Z,744.00
2019-03-11T10:54:54.368Z,720.00
2019-03-11T10:55:54.356Z,696.00
2019-03-11T10:56:54.361Z,764.00
2019-03-11T10:57:54.366Z,716.00
2019-03-11T10:58:54.325Z,716.00
2019-03-11T10:59:54.314Z,732.00
2019-03-11T11:00:54.316Z,784.00
2019-03-11T11:01:54.306Z,860.00
2019-03-11T11:02:54.283Z,752.00
2019-03-11T11:03:54.317Z,792.00
2019-03-11T11:04:54.297Z,932.00
2019-03-11T11:05:54.249Z,900.00
2019-03-11T11:06:54.239Z,1084.00
2019-03-11T11:07:54.287Z,1048.00
2019-03-11T11:08:54.225Z,1132.00
2019-03-11T11:09:54.207Z,1204.00
2019-03-11T11:10:54.229Z,1168.00
2019-03-11T11:11:54.183Z,1264.00
2019-03-11T11:12:54.171Z,1120.00
2019-03-11T11:13:54.176Z,1212.00
2019-03-11T11:14:54.151Z,1156.00
2019-03-11T11:15:54.161Z,1296.00
2019-03-11T11:16:54.132Z,1608.00
2019-03-11T11:17:54.191Z,1708.00
2019-03-11T11:18:54.110Z,2140.00
2019-03-11T11:20:02.761Z,1500.00
2019-03-11T11:20:55.096Z,2536.00
2019-03-11T11:21:54.078Z,2104.00
2019-03-11T11:22:54.061Z,2544.00
2019-03-11T11:23:54.082Z,3744.00
2019-03-11T11:24:54.042Z,3808.00
2019-03-11T11:25:54.041Z,1340.00
2019-03-11T11:26:54.027Z,1200.00
2019-03-11T11:27:54.006Z,1192.00
2019-03-11T11:28:53.993Z,940.00
2019-03-11T11:29:54.008Z,840.00
2019-03-11T11:30:54.017Z,616.00
2019-03-11T11:31:53.965Z,500.00
2019-03-11T11:32:53.951Z,368.00
2019-03-11T11:33:53.938Z,316.00
2019-03-11T11:34:53.929Z,304.00
2019-03-11T11:35:53.997Z,240.00
2019-03-11T11:36:53.923Z,480.00
2019-03-11T11:37:53.900Z,760.00
2019-03-11T11:38:53.896Z,912.00
2019-03-11T11:39:53.874Z,788.00
2019-03-11T11:40:53.869Z,396.00
2019-03-11T11:41:53.895Z,324.00
2019-03-11T11:42:53.860Z,496.00
2019-03-11T11:43:53.830Z,760.00
2019-03-11T11:44:53.821Z,1124.00
2019-03-11T11:45:53.810Z,1316.00
2019-03-11T11:46:53.796Z,3244.00
2019-03-11T11:47:53.827Z,2048.00
2019-03-11T11:48:53.786Z,2004.00
2019-03-11T11:49:53.766Z,1580.00
2019-03-11T11:50:53.752Z,1152.00
2019-03-11T11:51:53.743Z,1132.00
2019-03-11T11:52:53.735Z,1040.00
2019-03-11T11:53:53.786Z,1136.00
2019-03-11T11:54:53.712Z,1152.00
2019-03-11T11:55:57.672Z,1120.00
2019-03-11T11:56:53.689Z,1092.00
2019-03-11T11:57:53.682Z,1156.00
2019-03-11T11:58:53.722Z,1296.00
2019-03-11T11:59:54.397Z,1224.00
2019-03-11T12:00:53.645Z,1332.00
2019-03-11T12:02:03.311Z,1472.00
2019-03-11T12:02:54.626Z,1596.00
2019-03-11T12:03:53.611Z,1320.00
2019-03-11T12:04:53.612Z,1200.00
2019-03-11T12:05:53.647Z,1084.00
2019-03-11T12:06:53.579Z,824.00
2019-03-11T12:07:53.569Z,568.00
2019-03-11T12:08:53.560Z,424.00
2019-03-11T12:09:53.547Z,500.00
2019-03-11T12:10:53.557Z,488.00
2019-03-11T12:11:53.565Z,608.00
2019-03-11T12:12:53.516Z,540.00
2019-03-11T12:13:53.502Z,596.00
2019-03-11T12:14:53.491Z,620.00
2019-03-11T12:15:53.481Z,460.00
2019-03-11T12:16:53.483Z,508.00
2019-03-11T12:17:53.505Z,496.00
2019-03-11T12:18:53.455Z,624.00
2019-03-11T12:19:53.436Z,728.00
2019-03-11T12:20:53.427Z,652.00
2019-03-11T12:21:53.415Z,656.00
2019-03-11T12:22:53.430Z,512.00
2019-03-11T12:23:53.429Z,480.00
2019-03-11T12:24:53.380Z,312.00
2019-03-11T12:25:53.371Z,216.00
2019-03-11T12:26:53.362Z,160.00
2019-03-11T12:27:54.564Z,120.00
2019-03-11T12:28:53.350Z,136.00
2019-03-11T12:29:53.383Z,140.00
2019-03-11T12:30:53.329Z,296.00
2019-03-11T12:31:53.304Z,436.00
2019-03-11T12:32:53.297Z,904.00
2019-03-11T12:33:53.286Z,1076.00
2019-03-11T12:34:53.287Z,1556.00
2019-03-11T12:35:53.305Z,1236.00
2019-03-11T12:36:53.266Z,956.00
2019-03-11T12:37:53.237Z,792.00
2019-03-11T12:38:53.232Z,768.00
2019-03-11T12:39:53.219Z,700.00
2019-03-11T12:40:53.208Z,748.00
2019-03-11T12:41:53.263Z,860.00
2019-03-11T12:42:53.278Z,1096.00
2019-03-11T12:43:53.174Z,1052.00
2019-03-11T12:44:53.809Z,912.00
2019-03-11T12:45:53.158Z,904.00
2019-03-11T12:46:53.141Z,572.00
2019-03-11T12:47:53.130Z,580.00
2019-03-11T12:48:53.185Z,636.00
2019-03-11T12:49:53.107Z,576.00
2019-03-11T12:50:53.100Z,656.00